createdAt,value
2023-05-21T00:00:40.826Z,47.13
2023-05-21T00:03:13.791Z,47.43
2023-05-21T00:05:44.307Z,47.46
2023-05-21T00:08:12.304Z,47.53
2023-05-21T00:10:40.058Z,47.53
2023-05-21T00:13:09.082Z,47.48
2023-05-21T00:15:37.117Z,47.37
2023-05-21T00:18:05.168Z,47.60
2023-05-21T00:20:33.221Z,47.85
2023-05-21T00:23:03.903Z,47.63
2023-05-21T00:25:31.772Z,47.63
2023-05-21T00:27:59.543Z,47.88
2023-05-21T00:30:27.296Z,47.95
2023-05-21T00:32:55.083Z,47.77
2023-05-21T00:35:22.852Z,47.94
2023-05-21T00:37:52.060Z,48.05
2023-05-21T00:40:21.758Z,47.93
2023-05-21T00:42:49.885Z,48.12
2023-05-21T00:45:17.626Z,48.28
2023-05-21T00:47:48.386Z,48.10
2023-05-21T00:50:17.552Z,48.29
2023-05-21T00:52:45.837Z,48.33
2023-05-21T00:55:13.732Z,48.42
2023-05-21T00:57:42.999Z,48.46
2023-05-21T01:00:12.125Z,48.56
2023-05-21T01:02:40.124Z,48.58
2023-05-21T01:05:08.332Z,48.70
2023-05-21T01:07:39.147Z,48.62
2023-05-21T01:10:09.343Z,48.76
2023-05-21T01:12:40.431Z,48.75
2023-05-21T01:15:11.356Z,48.81
2023-05-21T01:17:40.189Z,48.81
2023-05-21T01:20:11.213Z,48.82
2023-05-21T01:22:44.585Z,49.00
2023-05-21T01:25:15.109Z,48.93
2023-05-21T01:27:42.879Z,48.92
2023-05-21T01:30:11.651Z,48.98
2023-05-21T01:32:46.518Z,49.09
2023-05-21T01:35:18.469Z,49.31
2023-05-21T01:37:50.244Z,49.26
2023-05-21T01:40:27.224Z,49.45
2023-05-21T01:42:55.207Z,49.46
2023-05-21T01:45:25.019Z,49.46
2023-05-21T01:47:56.176Z,49.50
2023-05-21T01:50:25.735Z,49.70
2023-05-21T01:52:56.869Z,49.49
2023-05-21T01:55:25.972Z,49.54
2023-05-21T01:57:53.922Z,49.60
2023-05-21T02:00:22.566Z,49.74
2023-05-21T02:02:50.474Z,49.80
2023-05-21T02:05:18.796Z,49.76
2023-05-21T02:07:47.438Z,49.90
2023-05-21T02:10:15.936Z,49.91
2023-05-21T02:12:45.125Z,49.78
2023-05-21T02:15:14.282Z,50.08
2023-05-21T02:17:42.571Z,50.15
2023-05-21T02:20:12.182Z,50.17
2023-05-21T02:22:40.362Z,50.23
2023-05-21T02:25:09.913Z,50.12
2023-05-21T02:27:38.712Z,50.15
2023-05-21T02:30:09.911Z,50.19
2023-05-21T02:32:39.798Z,50.21
2023-05-21T02:35:08.094Z,50.22
2023-05-21T02:37:36.559Z,50.29
2023-05-21T02:40:05.942Z,50.30
2023-05-21T02:42:33.771Z,50.36
2023-05-21T02:45:01.555Z,50.49
2023-05-21T02:47:30.683Z,50.47
2023-05-21T02:50:00.824Z,50.52
2023-05-21T02:52:28.800Z,50.75
2023-05-21T02:54:56.666Z,50.71
2023-05-21T02:57:24.392Z,50.77
2023-05-21T02:59:52.132Z,50.70
2023-05-21T03:02:20.020Z,50.71
2023-05-21T03:04:50.816Z,50.99
2023-05-21T03:07:19.793Z,50.62
2023-05-21T03:09:48.067Z,50.78
2023-05-21T03:12:15.859Z,51.03
2023-05-21T03:14:44.156Z,50.96
2023-05-21T03:17:14.094Z,51.21
2023-05-21T03:19:42.471Z,51.00
2023-05-21T03:22:12.286Z,51.30
2023-05-21T03:24:41.419Z,51.20
2023-05-21T03:27:09.312Z,51.26
2023-05-21T03:29:37.651Z,51.25
2023-05-21T03:32:06.303Z,51.08
2023-05-21T03:34:35.653Z,51.27
2023-05-21T03:37:03.493Z,51.06
2023-05-21T03:39:32.592Z,51.35
2023-05-21T03:42:00.341Z,51.46
2023-05-21T03:44:28.065Z,51.15
2023-05-21T03:46:55.801Z,51.52
2023-05-21T03:49:23.537Z,51.66
2023-05-21T03:51:51.322Z,51.61
2023-05-21T03:54:20.121Z,51.56
2023-05-21T03:56:49.241Z,51.78
2023-05-21T03:59:16.947Z,51.89
2023-05-21T04:01:45.342Z,51.96
2023-05-21T04:04:13.248Z,51.95
2023-05-21T04:06:42.346Z,51.99
2023-05-21T04:09:10.088Z,52.18
2023-05-21T04:11:38.033Z,52.20
2023-05-21T04:14:07.283Z,52.26
2023-05-21T04:16:35.658Z,51.89
2023-05-21T04:19:03.565Z,52.06
2023-05-21T04:21:31.908Z,52.54
2023-05-21T04:24:00.779Z,52.50
2023-05-21T04:26:29.540Z,52.37
2023-05-21T04:28:57.691Z,52.48
2023-05-21T04:31:26.885Z,52.53
2023-05-21T04:33:54.725Z,52.63
2023-05-21T04:36:22.457Z,52.75
2023-05-21T04:38:50.153Z,52.87
2023-05-21T04:41:19.002Z,52.91
2023-05-21T04:43:46.915Z,52.96
2023-05-21T04:46:14.811Z,52.92
2023-05-21T04:48:45.143Z,52.86
2023-05-21T04:51:12.877Z,53.02
2023-05-21T04:53:40.836Z,52.98
2023-05-21T04:56:09.832Z,53.09
2023-05-21T04:58:40.581Z,53.12
2023-05-21T05:01:08.976Z,53.44
2023-05-21T05:03:36.887Z,53.37
2023-05-21T05:06:07.765Z,53.47
2023-05-21T05:08:35.672Z,53.37
2023-05-21T05:11:03.461Z,53.52
2023-05-21T05:13:31.355Z,53.83
2023-05-21T05:16:00.378Z,53.78
2023-05-21T05:18:28.492Z,53.83
2023-05-21T05:20:56.283Z,53.92
2023-05-21T05:23:25.637Z,54.22
2023-05-21T05:25:53.473Z,54.12
2023-05-21T05:28:21.369Z,53.87
2023-05-21T05:30:49.154Z,54.14
2023-05-21T05:33:16.987Z,54.14
2023-05-21T05:35:44.739Z,54.11
2023-05-21T05:38:13.580Z,53.77
2023-05-21T05:40:42.672Z,53.95
2023-05-21T05:43:10.449Z,53.96
2023-05-21T05:45:38.808Z,53.65
2023-05-21T05:48:07.467Z,53.79
2023-05-21T05:50:35.325Z,53.97
2023-05-21T05:53:03.126Z,53.62
2023-05-21T05:55:31.364Z,53.97
2023-05-21T05:58:00.501Z,54.00
2023-05-21T06:00:28.377Z,53.94
2023-05-21T06:02:56.233Z,54.06
2023-05-21T06:05:24.152Z,54.30
2023-05-21T06:07:51.917Z,54.19
2023-05-21T06:10:20.595Z,54.53
2023-05-21T06:12:48.496Z,54.11
2023-05-21T06:15:19.408Z,54.86
2023-05-21T06:17:47.185Z,55.26
2023-05-21T06:20:15.063Z,55.24
2023-05-21T06:22:42.823Z,55.24
2023-05-21T06:25:11.224Z,54.98
2023-05-21T06:27:39.754Z,54.86
2023-05-21T06:30:08.645Z,54.51
2023-05-21T06:32:37.951Z,54.60
2023-05-21T06:35:06.863Z,54.40
2023-05-21T06:37:34.621Z,54.65
2023-05-21T06:40:02.518Z,54.67
2023-05-21T06:42:30.308Z,54.76
2023-05-21T06:44:58.056Z,55.11
2023-05-21T06:47:25.869Z,55.05
2023-05-21T06:49:54.967Z,54.92
2023-05-21T06:52:22.675Z,54.78
2023-05-21T06:54:50.453Z,54.74
2023-05-21T06:57:18.245Z,54.81
2023-05-21T06:59:46.010Z,54.85
2023-05-21T07:02:13.900Z,54.97
2023-05-21T07:04:41.705Z,54.82
2023-05-21T07:07:10.874Z,54.90
2023-05-21T07:09:38.649Z,54.83
2023-05-21T07:12:06.938Z,54.79
2023-05-21T07:14:34.756Z,54.91
2023-05-21T07:17:02.667Z,54.78
2023-05-21T07:19:30.558Z,54.78
2023-05-21T07:21:58.846Z,54.83
2023-05-21T07:24:28.124Z,54.77
2023-05-21T07:26:55.936Z,54.88
2023-05-21T07:29:23.738Z,54.98
2023-05-21T07:31:51.477Z,55.06
2023-05-21T07:34:19.250Z,55.24
2023-05-21T07:36:47.008Z,55.42
2023-05-21T07:39:14.913Z,55.28
2023-05-21T07:41:44.061Z,55.22
2023-05-21T07:44:11.906Z,55.14
2023-05-21T07:46:39.719Z,55.12
2023-05-21T07:49:07.554Z,55.87
2023-05-21T07:51:35.540Z,55.79
2023-05-21T07:54:03.355Z,55.80
2023-05-21T07:56:32.399Z,55.89
2023-05-21T07:59:01.720Z,55.68
2023-05-21T08:01:29.920Z,55.71
2023-05-21T08:04:00.787Z,55.69
2023-05-21T08:06:28.744Z,55.88
2023-05-21T08:08:57.365Z,56.05
2023-05-21T08:11:25.130Z,55.99
2023-05-21T08:13:52.879Z,55.95
2023-05-21T08:16:23.479Z,55.95
2023-05-21T08:18:51.486Z,56.01
2023-05-21T08:21:19.832Z,56.03
2023-05-21T08:23:47.618Z,56.16
2023-05-21T08:26:17.159Z,56.30
2023-05-21T08:28:45.065Z,56.29
2023-05-21T08:31:12.877Z,56.12
2023-05-21T08:33:51.418Z,56.11
2023-05-21T08:36:19.406Z,56.23
2023-05-21T08:38:47.164Z,56.30
2023-05-21T08:41:15.668Z,56.44
2023-05-21T08:43:44.878Z,56.53
2023-05-21T08:46:13.236Z,56.55
2023-05-21T08:48:43.461Z,56.56
2023-05-21T08:51:11.249Z,56.60
2023-05-21T08:53:39.062Z,56.72
2023-05-21T08:56:08.273Z,56.61
2023-05-21T08:58:37.703Z,56.71
2023-05-21T09:01:05.950Z,56.80
2023-05-21T09:03:34.182Z,56.70
2023-05-21T09:06:04.136Z,56.70
2023-05-21T09:08:36.485Z,56.69
2023-05-21T09:11:04.324Z,56.84
2023-05-21T09:13:35.397Z,56.91
2023-05-21T09:16:04.098Z,56.89
2023-05-21T09:18:31.870Z,56.89
2023-05-21T09:21:00.271Z,56.84
2023-05-21T09:23:30.109Z,57.14
2023-05-21T09:25:58.330Z,57.28
2023-05-21T09:28:26.372Z,57.28
2023-05-21T09:30:54.625Z,57.23
2023-05-21T09:33:26.972Z,57.37
2023-05-21T09:35:54.927Z,57.24
2023-05-21T09:38:23.651Z,57.33
2023-05-21T09:40:55.776Z,57.40
2023-05-21T09:43:23.624Z,57.28
2023-05-21T09:45:53.377Z,57.42
2023-05-21T09:48:34.627Z,57.25
2023-05-21T09:51:13.096Z,57.38
2023-05-21T09:53:51.622Z,57.45
2023-05-21T09:56:25.373Z,57.68
2023-05-21T09:58:54.825Z,57.59
2023-05-21T10:01:22.968Z,57.69
2023-05-21T10:03:54.982Z,57.48
2023-05-21T10:06:25.378Z,57.64
2023-05-21T10:08:55.988Z,57.62
2023-05-21T10:11:28.337Z,57.75
2023-05-21T10:14:03.119Z,57.75
2023-05-21T10:16:33.863Z,57.62
2023-05-21T10:19:02.087Z,57.93
2023-05-21T10:21:30.028Z,57.78
2023-05-21T10:23:58.922Z,57.83
2023-05-21T10:26:28.314Z,58.08
2023-05-21T10:29:00.053Z,58.41
2023-05-21T10:31:28.612Z,58.23
2023-05-21T10:33:57.195Z,57.87
2023-05-21T10:36:26.003Z,58.08
2023-05-21T10:38:55.047Z,57.92
2023-05-21T10:41:24.879Z,58.22
2023-05-21T10:44:03.792Z,58.39
2023-05-21T10:46:57.691Z,57.88
2023-05-21T10:49:39.578Z,58.29
2023-05-21T10:52:15.516Z,58.19
2023-05-21T10:54:58.095Z,57.97
2023-05-21T10:57:45.701Z,58.13
2023-05-21T11:00:17.016Z,57.90
2023-05-21T11:02:45.833Z,57.79
2023-05-21T11:05:13.738Z,58.05
2023-05-21T11:07:57.818Z,58.09
2023-05-21T11:10:32.837Z,57.97
2023-05-21T11:13:08.063Z,57.75
2023-05-21T11:16:07.274Z,57.37
2023-05-21T11:19:00.495Z,57.90
2023-05-21T11:21:31.246Z,57.79
2023-05-21T11:24:03.942Z,57.43
2023-05-21T11:27:04.376Z,57.80
2023-05-21T11:29:56.687Z,57.19
2023-05-21T11:32:25.922Z,57.53
2023-05-21T11:34:53.726Z,57.90
2023-05-21T11:37:30.120Z,57.57
2023-05-21T11:40:00.028Z,57.59
2023-05-21T11:42:32.590Z,57.51
2023-05-21T11:45:01.585Z,57.19
2023-05-21T11:47:32.221Z,57.05
2023-05-21T11:50:01.701Z,56.92
2023-05-21T11:52:30.420Z,57.00
2023-05-21T11:54:59.869Z,56.90
2023-05-21T11:57:30.912Z,57.11
2023-05-21T11:59:59.714Z,57.02
2023-05-21T12:02:28.807Z,56.48
2023-05-21T12:05:00.217Z,56.58
2023-05-21T12:07:29.985Z,56.84
2023-05-21T12:09:58.042Z,56.22
2023-05-21T12:12:35.316Z,56.68
2023-05-21T12:15:12.529Z,56.67
2023-05-21T12:17:40.406Z,56.62
2023-05-21T12:20:10.791Z,56.65
2023-05-21T12:22:43.136Z,56.30
2023-05-21T12:25:12.055Z,56.23
2023-05-21T12:27:42.032Z,56.36
2023-05-21T12:30:11.127Z,56.37
2023-05-21T12:32:43.724Z,56.02
2023-05-21T12:35:22.655Z,56.02
2023-05-21T12:37:51.760Z,56.05
2023-05-21T12:40:20.041Z,56.25
2023-05-21T12:42:47.911Z,56.07
2023-05-21T12:45:18.439Z,56.35
2023-05-21T12:47:50.673Z,56.30
2023-05-21T12:50:22.241Z,56.08
2023-05-21T12:52:50.033Z,56.39
2023-05-21T12:55:18.358Z,56.14
2023-05-21T12:57:46.567Z,56.13
2023-05-21T13:00:14.581Z,56.32
2023-05-21T13:02:44.782Z,56.41
2023-05-21T13:05:17.897Z,56.38
2023-05-21T13:07:47.924Z,56.12
2023-05-21T13:10:17.208Z,55.75
2023-05-21T13:12:46.018Z,55.23
2023-05-21T13:15:13.928Z,55.00
2023-05-21T13:17:41.788Z,55.07
2023-05-21T13:20:12.401Z,54.78
2023-05-21T13:22:42.835Z,54.92
2023-05-21T13:25:12.753Z,55.19
2023-05-21T13:27:40.538Z,55.40
2023-05-21T13:30:11.328Z,55.18
2023-05-21T13:32:40.038Z,55.24
2023-05-21T13:35:08.748Z,54.89
2023-05-21T13:37:37.153Z,54.57
2023-05-21T13:40:05.873Z,54.51
2023-05-21T13:42:37.780Z,54.35
2023-05-21T13:45:06.163Z,54.36
2023-05-21T13:47:35.631Z,54.46
2023-05-21T13:50:05.254Z,54.15
2023-05-21T13:52:33.004Z,53.98
2023-05-21T13:55:01.032Z,54.16
2023-05-21T13:57:30.849Z,54.24
2023-05-21T14:00:00.909Z,54.45
2023-05-21T14:02:28.805Z,54.65
2023-05-21T14:04:56.682Z,54.47
2023-05-21T14:07:24.429Z,54.24
2023-05-21T14:09:52.583Z,54.09
2023-05-21T14:12:20.689Z,53.82
2023-05-21T14:14:49.802Z,53.76
2023-05-21T14:17:19.063Z,53.75
2023-05-21T14:19:48.231Z,53.94
2023-05-21T14:22:16.002Z,53.61
2023-05-21T14:24:43.752Z,53.45
2023-05-21T14:27:13.164Z,53.07
2023-05-21T14:29:42.476Z,53.22
2023-05-21T14:32:10.329Z,53.34
2023-05-21T14:34:40.366Z,53.63
2023-05-21T14:37:08.212Z,53.55
2023-05-21T14:39:36.021Z,53.61
2023-05-21T14:42:05.233Z,53.34
2023-05-21T14:44:32.967Z,52.91
2023-05-21T14:47:00.868Z,53.29
2023-05-21T14:49:28.701Z,53.30
2023-05-21T14:51:57.869Z,53.18
2023-05-21T14:54:25.631Z,53.47
2023-05-21T14:56:54.235Z,53.28
2023-05-21T14:59:22.121Z,53.36
2023-05-21T15:01:50.176Z,53.22
2023-05-21T15:04:18.003Z,53.15
2023-05-21T15:06:45.968Z,53.51
2023-05-21T15:09:15.103Z,53.26
2023-05-21T15:11:43.942Z,52.68
2023-05-21T15:14:11.715Z,52.68
2023-05-21T15:16:39.611Z,52.54
2023-05-21T15:19:07.544Z,52.69
2023-05-21T15:21:35.422Z,53.04
2023-05-21T15:24:03.194Z,53.58
2023-05-21T15:26:32.497Z,53.66
2023-05-21T15:29:00.271Z,53.62
2023-05-21T15:31:28.054Z,53.40
2023-05-21T15:33:55.854Z,53.44
2023-05-21T15:36:23.627Z,52.62
2023-05-21T15:38:51.404Z,52.61
2023-05-21T15:41:19.242Z,52.18
2023-05-21T15:43:48.485Z,52.87
2023-05-21T15:46:16.333Z,53.00
2023-05-21T15:48:44.154Z,52.92
2023-05-21T15:51:11.910Z,52.98
2023-05-21T15:53:39.703Z,53.04
2023-05-21T15:56:09.094Z,52.92
2023-05-21T15:58:36.883Z,52.56
2023-05-21T16:01:06.168Z,52.32
2023-05-21T16:03:34.008Z,52.64
2023-05-21T16:06:01.913Z,53.04
2023-05-21T16:08:29.715Z,53.05
2023-05-21T16:10:58.100Z,53.09
2023-05-21T16:13:26.472Z,52.84
2023-05-21T16:15:54.312Z,52.73
2023-05-21T16:18:23.466Z,52.79
2023-05-21T16:20:51.316Z,52.66
2023-05-21T16:23:19.133Z,52.46
2023-05-21T16:25:46.904Z,52.15
2023-05-21T16:28:14.696Z,51.93
2023-05-21T16:30:42.570Z,52.25
2023-05-21T16:33:11.565Z,52.58
2023-05-21T16:35:40.771Z,52.20
2023-05-21T16:38:08.641Z,52.10
2023-05-21T16:40:36.522Z,52.13
2023-05-21T16:43:04.311Z,52.07
2023-05-21T16:45:39.757Z,52.03
2023-05-21T16:48:08.163Z,52.56
2023-05-21T16:50:36.061Z,52.34
2023-05-21T16:53:06.815Z,52.24
2023-05-21T16:55:36.303Z,52.14
2023-05-21T16:58:05.718Z,52.42
2023-05-21T17:00:33.600Z,52.62
2023-05-21T17:03:01.468Z,52.36
2023-05-21T17:05:29.356Z,52.03
2023-05-21T17:07:57.242Z,52.45
2023-05-21T17:10:26.489Z,52.14
2023-05-21T17:12:54.532Z,52.37
2023-05-21T17:15:22.434Z,52.38
2023-05-21T17:17:50.301Z,52.06
2023-05-21T17:20:18.351Z,52.32
2023-05-21T17:22:46.166Z,52.23
2023-05-21T17:25:13.970Z,51.92
2023-05-21T17:27:43.136Z,52.08
2023-05-21T17:30:11.560Z,51.97
2023-05-21T17:32:39.421Z,52.05
2023-05-21T17:35:08.310Z,51.90
2023-05-21T17:37:36.111Z,52.19
2023-05-21T17:40:04.350Z,51.97
2023-05-21T17:42:32.252Z,51.67
2023-05-21T17:45:01.424Z,52.12
2023-05-21T17:47:29.200Z,52.25
2023-05-21T17:49:57.039Z,52.75
2023-05-21T17:52:25.641Z,52.23
2023-05-21T17:54:53.518Z,51.89
2023-05-21T17:57:21.437Z,52.11
2023-05-21T17:59:49.256Z,52.18
2023-05-21T18:02:18.420Z,52.06
2023-05-21T18:04:46.213Z,51.84
2023-05-21T18:07:13.989Z,51.94
2023-05-21T18:09:42.819Z,51.99
2023-05-21T18:12:11.011Z,51.78
2023-05-21T18:14:38.862Z,52.06
2023-05-21T18:17:06.993Z,51.77
2023-05-21T18:19:36.201Z,51.71
2023-05-21T18:22:05.070Z,51.77
2023-05-21T18:24:32.868Z,52.29
2023-05-21T18:27:00.923Z,52.00
2023-05-21T18:29:28.735Z,52.04
2023-05-21T18:31:56.613Z,52.00
2023-05-21T18:34:24.459Z,52.02
2023-05-21T18:36:54.543Z,51.86
2023-05-21T18:39:24.832Z,52.73
2023-05-21T18:42:01.552Z,52.48
2023-05-21T18:44:39.956Z,52.41
2023-05-21T18:47:08.384Z,52.36
2023-05-21T18:49:36.532Z,52.32
2023-05-21T18:52:06.791Z,52.18
2023-05-21T18:54:34.685Z,52.06
2023-05-21T18:57:02.504Z,52.25
2023-05-21T18:59:31.265Z,51.93
2023-05-21T19:01:59.173Z,51.85
2023-05-21T19:04:27.433Z,51.80
2023-05-21T19:06:55.260Z,51.86
2023-05-21T19:09:24.489Z,52.15
2023-05-21T19:11:52.452Z,51.80
2023-05-21T19:14:23.263Z,51.91
2023-05-21T19:16:51.080Z,51.79
2023-05-21T19:19:18.952Z,51.80
2023-05-21T19:21:46.882Z,52.08
2023-05-21T19:24:14.685Z,52.58
2023-05-21T19:26:43.865Z,52.63
2023-05-21T19:29:11.948Z,52.67
2023-05-21T19:31:39.745Z,52.78
2023-05-21T19:34:10.536Z,52.75
2023-05-21T19:36:52.150Z,52.90
2023-05-21T19:39:21.146Z,52.73
2023-05-21T19:41:51.635Z,52.82
2023-05-21T19:44:19.534Z,52.82
2023-05-21T19:46:48.591Z,52.71
2023-05-21T19:49:16.442Z,52.67
2023-05-21T19:51:44.313Z,52.92
2023-05-21T19:54:12.178Z,53.16
2023-05-21T19:56:40.057Z,53.16
2023-05-21T19:59:09.249Z,52.83
2023-05-21T20:01:39.528Z,53.08
2023-05-21T20:04:07.825Z,52.85
2023-05-21T20:06:36.081Z,52.91
2023-05-21T20:09:04.016Z,52.94
2023-05-21T20:11:31.996Z,52.73
2023-05-21T20:13:59.807Z,52.85
2023-05-21T20:16:29.975Z,52.57
2023-05-21T20:18:58.363Z,52.87
2023-05-21T20:21:26.280Z,52.59
2023-05-21T20:23:54.236Z,52.73
2023-05-21T20:26:23.191Z,52.68
2023-05-21T20:28:51.030Z,53.05
2023-05-21T20:31:18.945Z,53.50
2023-05-21T20:33:50.371Z,54.11
2023-05-21T20:36:18.499Z,53.84
2023-05-21T20:38:47.166Z,54.19
2023-05-21T20:41:15.305Z,53.93
2023-05-21T20:43:45.480Z,54.14
2023-05-21T20:46:13.803Z,54.29
2023-05-21T20:48:41.759Z,54.20
2023-05-21T20:51:11.144Z,54.26
2023-05-21T20:53:38.894Z,54.36
2023-05-21T20:56:08.075Z,54.57
2023-05-21T20:58:36.166Z,54.60
2023-05-21T21:01:03.960Z,54.36
2023-05-21T21:03:34.180Z,54.31
2023-05-21T21:06:03.065Z,54.20
2023-05-21T21:08:34.587Z,54.16
2023-05-21T21:11:02.433Z,54.58
2023-05-21T21:13:30.156Z,54.30
2023-05-21T21:15:57.900Z,54.38
2023-05-21T21:18:25.688Z,54.44
2023-05-21T21:20:54.016Z,54.41
2023-05-21T21:23:22.153Z,54.44
2023-05-21T21:25:51.432Z,54.62
2023-05-21T21:28:19.953Z,54.71
2023-05-21T21:30:47.762Z,54.28
2023-05-21T21:33:16.620Z,54.35
2023-05-21T21:35:44.559Z,54.28
2023-05-21T21:38:12.342Z,53.97
2023-05-21T21:40:40.318Z,54.51
2023-05-21T21:43:09.644Z,54.57
2023-05-21T21:45:37.466Z,54.08
2023-05-21T21:48:05.880Z,54.26
2023-05-21T21:50:33.706Z,54.49
2023-05-21T21:53:03.596Z,54.43
2023-05-21T21:55:31.458Z,54.80
2023-05-21T21:57:59.231Z,54.71
2023-05-21T22:00:28.525Z,54.69
2023-05-21T22:02:56.794Z,54.91
2023-05-21T22:05:24.705Z,54.52
2023-05-21T22:07:52.889Z,54.57
2023-05-21T22:10:21.298Z,54.32
2023-05-21T22:12:49.020Z,54.28
2023-05-21T22:15:22.837Z,54.82
2023-05-21T22:17:53.453Z,54.56
2023-05-21T22:20:22.316Z,54.60
2023-05-21T22:22:51.353Z,55.34
2023-05-21T22:25:20.268Z,54.95
2023-05-21T22:27:48.068Z,55.36
2023-05-21T22:30:16.055Z,54.74
2023-05-21T22:32:43.832Z,54.97
2023-05-21T22:35:13.584Z,54.79
2023-05-21T22:37:41.484Z,54.87
2023-05-21T22:40:10.817Z,54.69
2023-05-21T22:42:39.171Z,54.96
2023-05-21T22:45:08.424Z,54.77
2023-05-21T22:47:39.695Z,54.96
2023-05-21T22:50:08.501Z,54.77
2023-05-21T22:52:38.175Z,55.41
2023-05-21T22:55:06.644Z,55.51
2023-05-21T22:57:34.670Z,55.52
2023-05-21T23:00:02.487Z,55.09
2023-05-21T23:02:30.419Z,55.22
2023-05-21T23:04:58.724Z,55.74
2023-05-21T23:07:26.737Z,55.35
2023-05-21T23:09:55.951Z,55.65
2023-05-21T23:12:23.801Z,55.57
2023-05-21T23:14:51.608Z,56.08
2023-05-21T23:17:19.352Z,56.16
2023-05-21T23:19:49.943Z,56.32
2023-05-21T23:22:17.712Z,56.65
2023-05-21T23:24:45.627Z,56.37
2023-05-21T23:27:14.771Z,56.36
2023-05-21T23:29:42.626Z,56.15
2023-05-21T23:32:10.509Z,56.22
2023-05-21T23:34:38.341Z,56.46
2023-05-21T23:37:06.258Z,56.92
2023-05-21T23:39:34.071Z,56.88
2023-05-21T23:42:01.958Z,56.99
2023-05-21T23:44:31.159Z,56.65
2023-05-21T23:46:58.917Z,56.90
2023-05-21T23:49:26.712Z,56.97
2023-05-21T23:51:54.625Z,57.34
2023-05-21T23:54:22.412Z,57.25
2023-05-21T23:56:50.179Z,57.44
2023-05-21T23:59:18.570Z,57.34
